Time;durP1;ratioP1;P1;durP2;ratioP2;P2;SDS_P1;SDS_P2;PMS_P1;PMS_P2;Temp;Humidity;BMP_temperature;BMP_pressure;BME280_temperature;BME280_humidity;BME280_pressure;Samples;Min_cycle;Max_cycle;Signal;HPM_P1;HPM_P2
2023/07/29 00:00:39;;;;;;;2.30;2.10;;;;;;;17.61;100.00;97893.16;4176549;28;20186;-72
2023/07/29 00:02:39;;;;;;;2.80;2.25;;;;;;;17.63;100.00;97897.09;4175150;28;20600;-72
2023/07/29 00:04:40;;;;;;;4.20;2.42;;;;;;;17.64;100.00;97893.06;4176190;28;20198;-72
2023/07/29 00:06:40;;;;;;;3.00;2.70;;;;;;;17.69;100.00;97894.53;4176301;28;20124;-72
2023/07/29 00:08:40;;;;;;;2.88;2.38;;;;;;;17.66;100.00;97893.41;4175498;28;20087;-72
2023/07/29 00:10:40;;;;;;;2.83;2.58;;;;;;;17.70;100.00;97901.72;4176247;28;20121;-72
2023/07/29 00:12:41;;;;;;;2.47;2.28;;;;;;;17.71;100.00;97896.91;4175287;28;20049;-72
2023/07/29 00:14:41;;;;;;;3.28;2.58;;;;;;;17.71;100.00;97894.94;4176449;28;20041;-72
2023/07/29 00:16:42;;;;;;;2.63;2.42;;;;;;;17.75;100.00;97886.44;4176278;28;20041;-72
2023/07/29 00:18:43;;;;;;;3.92;2.38;;;;;;;17.78;100.00;97891.91;4175402;28;20041;-72
2023/07/29 00:20:44;;;;;;;2.45;2.25;;;;;;;17.75;100.00;97876.03;4176331;28;20147;-72
2023/07/29 00:22:44;;;;;;;3.63;2.58;;;;;;;17.78;100.00;97883.53;4174918;28;20494;-72
2023/07/29 00:24:44;;;;;;;2.72;2.20;;;;;;;17.82;100.00;97886.25;4175841;28;20130;-72
2023/07/29 00:26:44;;;;;;;3.13;2.22;;;;;;;17.84;100.00;97886.59;4175914;28;20386;-72
2023/07/29 00:28:45;;;;;;;2.30;2.10;;;;;;;17.87;100.00;97888.47;4175543;28;20160;-72
2023/07/29 00:30:45;;;;;;;2.25;2.03;;;;;;;17.90;100.00;97890.41;4175220;28;20274;-72
2023/07/29 00:32:45;;;;;;;2.22;2.03;;;;;;;17.91;100.00;97895.56;4174270;28;20120;-72
2023/07/29 00:34:46;;;;;;;2.42;2.20;;;;;;;17.92;100.00;97891.53;4175888;28;20574;-72
2023/07/29 00:36:46;;;;;;;2.30;2.00;;;;;;;17.94;100.00;97880.69;4175523;28;20485;-72
2023/07/29 00:38:46;;;;;;;2.13;1.88;;;;;;;17.97;100.00;97890.22;4174893;28;20393;-72
2023/07/29 00:40:47;;;;;;;3.15;2.30;;;;;;;18.00;100.00;97885.75;4175684;28;20037;-72
2023/07/29 00:42:47;;;;;;;3.38;1.95;;;;;;;17.98;100.00;97880.59;4174229;28;20049;-72
2023/07/29 00:44:48;;;;;;;2.85;2.00;;;;;;;18.03;100.00;97876.47;4175681;28;20137;-72
2023/07/29 00:46:50;;;;;;;3.20;1.90;;;;;;;18.03;100.00;97873.66;4176295;28;20747;-72
2023/07/29 00:48:50;;;;;;;2.33;1.83;;;;;;;18.06;100.00;97884.00;4175374;28;20045;-72
2023/07/29 00:50:51;;;;;;;3.85;2.00;;;;;;;18.04;100.00;97881.63;4175506;28;20037;-72
2023/07/29 00:52:51;;;;;;;2.40;2.00;;;;;;;18.02;100.00;97883.28;4174980;28;20041;-72
2023/07/29 00:54:52;;;;;;;2.33;1.95;;;;;;;18.03;100.00;97877.25;4175522;28;20171;-72
2023/07/29 00:56:52;;;;;;;5.72;2.25;;;;;;;18.00;100.00;97877.34;4174799;28;20052;-72
2023/07/29 00:58:58;;;;;;;3.35;2.20;;;;;;;18.02;100.00;97875.69;4175498;28;20041;-72
2023/07/29 01:00:58;;;;;;;2.95;2.03;;;;;;;17.99;100.00;97881.38;4175284;28;20139;-72
2023/07/29 01:02:59;;;;;;;2.40;1.92;;;;;;;18.03;100.00;97879.25;4174803;28;20041;-72
2023/07/29 01:05:00;;;;;;;2.83;1.90;;;;;;;18.01;100.00;97881.72;4174057;28;20589;-72
2023/07/29 01:07:23;;;;;;;2.50;2.17;;;;;;;17.97;100.00;97876.22;4175198;28;20073;-72
2023/07/29 01:09:35;;;;;;;4.75;1.80;;;;;;;17.99;100.00;97876.56;4174830;28;20044;-72
2023/07/29 01:11:52;;;;;;;2.22;2.03;;;;;;;17.97;100.00;97870.63;4174631;28;20091;-72
2023/07/29 01:14:14;;;;;;;2.67;1.88;;;;;;;17.94;100.00;97866.69;4173551;28;20083;-71
2023/07/29 01:16:21;;;;;;;2.40;1.40;;;;;;;17.95;100.00;97862.66;4174249;28;20077;-72
2023/07/29 01:18:30;;;;;;;2.35;1.70;;;;;;;17.88;100.00;97854.50;4175127;28;20048;-72
2023/07/29 01:20:34;;;;;;;2.08;1.80;;;;;;;17.87;100.00;97863.31;4174834;28;20036;-72
2023/07/29 01:22:35;;;;;;;6.47;1.80;;;;;;;17.87;100.00;97847.31;4173949;28;20094;-72
2023/07/29 01:24:36;;;;;;;1.65;1.55;;;;;;;17.88;100.00;97851.69;4174811;28;20140;-72
2023/07/29 01:26:36;;;;;;;1.60;1.50;;;;;;;17.88;100.00;97850.91;4175165;28;20077;-72
2023/07/29 01:28:36;;;;;;;2.20;1.60;;;;;;;17.88;100.00;97848.09;4173132;28;20126;-72
2023/07/29 01:30:43;;;;;;;1.90;1.65;;;;;;;17.83;100.00;97852.22;4174736;28;20120;-72
2023/07/29 01:33:20;;;;;;;3.03;1.80;;;;;;;17.78;100.00;97844.34;4172691;28;20432;-72
2023/07/29 01:35:44;;;;;;;4.38;1.70;;;;;;;17.76;100.00;97851.63;4174681;28;20120;-72
2023/07/29 01:37:59;;;;;;;2.83;1.65;;;;;;;17.73;100.00;97844.91;4174088;28;20496;-72
2023/07/29 01:40:01;;;;;;;1.70;1.60;;;;;;;17.67;100.00;97835.44;4174327;28;20056;-72
2023/07/29 01:42:01;;;;;;;1.60;1.50;;;;;;;17.63;100.00;97835.56;4173430;28;20049;-72
2023/07/29 01:44:03;;;;;;;2.17;1.45;;;;;;;17.58;100.00;97836.09;4173952;28;20044;-72
2023/07/29 01:46:03;;;;;;;3.88;1.80;;;;;;;17.55;100.00;97842.56;4175715;28;20048;-72
2023/07/29 01:48:07;;;;;;;3.03;1.92;;;;;;;17.51;100.00;97844.66;4174988;28;20025;-72
2023/07/29 01:50:08;;;;;;;3.33;1.77;;;;;;;17.45;100.00;97845.63;4173998;28;20377;-72
2023/07/29 01:52:08;;;;;;;2.00;1.50;;;;;;;17.40;100.00;97853.34;4174311;28;20029;-72
2023/07/29 01:54:09;;;;;;;1.63;1.50;;;;;;;17.31;100.00;97846.78;4173516;28;20040;-72
2023/07/29 01:56:09;;;;;;;3.38;1.85;;;;;;;17.26;100.00;97841.72;4175032;28;20031;-72
2023/07/29 01:58:09;;;;;;;2.70;1.80;;;;;;;17.20;100.00;97844.25;4174550;28;20056;-72
2023/07/29 02:00:10;;;;;;;2.15;1.95;;;;;;;17.18;100.00;97852.28;4173887;28;20381;-72
2023/07/29 02:02:11;;;;;;;2.05;1.88;;;;;;;17.11;100.00;97849.66;4174102;28;20449;-72
2023/07/29 02:04:11;;;;;;;2.30;2.10;;;;;;;17.06;100.00;97839.81;4173515;28;20396;-72
2023/07/29 02:06:11;;;;;;;9.95;2.70;;;;;;;17.02;100.00;97847.50;4174286;28;20037;-72
2023/07/29 02:08:12;;;;;;;2.45;1.90;;;;;;;16.96;100.00;97852.00;4174526;28;20037;-72
2023/07/29 02:10:12;;;;;;;3.88;2.03;;;;;;;16.92;100.00;97850.53;4173507;28;20060;-72
2023/07/29 02:12:12;;;;;;;4.43;2.30;;;;;;;16.87;100.00;97857.44;4173551;28;20029;-72
2023/07/29 02:14:13;;;;;;;2.80;2.15;;;;;;;16.81;100.00;97857.19;4173908;28;20140;-72
2023/07/29 02:16:13;;;;;;;3.08;2.25;;;;;;;16.78;100.00;97862.84;4174400;28;20108;-72
2023/07/29 02:18:13;;;;;;;2.92;2.33;;;;;;;16.74;100.00;97862.94;4174509;28;20060;-72
2023/07/29 02:20:14;;;;;;;3.65;2.55;;;;;;;16.72;100.00;97851.41;4173031;28;20141;-72
2023/07/29 02:22:16;;;;;;;3.38;2.22;;;;;;;16.67;100.00;97851.88;4173127;28;20043;-72
2023/07/29 02:24:16;;;;;;;;;;;;;;;16.67;100.00;97856.69;4173341;28;20112;-72
2023/07/29 02:26:17;;;;;;;2.80;2.30;;;;;;;16.59;100.00;97853.25;4173892;28;19908;-72
2023/07/29 02:28:17;;;;;;;5.28;2.20;;;;;;;16.58;100.00;97854.47;4173989;28;20122;-72
2023/07/29 02:30:17;;;;;;;3.80;2.33;;;;;;;16.53;100.00;97852.19;4173557;28;20036;-72
2023/07/29 02:32:18;;;;;;;3.10;2.40;;;;;;;16.51;100.00;97852.63;4173288;28;20029;-72
2023/07/29 02:34:19;;;;;;;3.08;2.15;;;;;;;16.51;100.00;97854.63;4173455;28;20467;-72
2023/07/29 02:36:19;;;;;;;3.47;2.30;;;;;;;16.50;100.00;97853.06;4173930;28;20055;-72
2023/07/29 02:38:19;;;;;;;2.85;2.17;;;;;;;16.50;100.00;97855.88;4173690;28;20047;-72
2023/07/29 02:40:20;;;;;;;3.90;2.40;;;;;;;16.45;100.00;97856.34;4173404;28;20060;-72
2023/07/29 02:42:21;;;;;;;2.20;1.90;;;;;;;16.43;100.00;97854.00;4173917;28;20667;-72
2023/07/29 02:44:21;;;;;;;3.08;2.20;;;;;;;16.40;100.00;97848.50;4173457;28;20277;-72
2023/07/29 02:46:21;;;;;;;2.20;1.98;;;;;;;16.37;100.00;97849.34;4173905;28;20048;-72
2023/07/29 02:48:22;;;;;;;3.25;2.00;;;;;;;16.32;100.00;97847.09;4174021;28;20192;-72
2023/07/29 02:50:22;;;;;;;3.53;2.00;;;;;;;16.26;100.00;97849.59;4173184;28;20368;-72
2023/07/29 02:52:22;;;;;;;9.00;2.63;;;;;;;16.19;100.00;97850.53;4173125;28;20427;-72
2023/07/29 02:54:23;;;;;;;4.18;2.13;;;;;;;16.07;100.00;97847.63;4173324;28;20128;-72
2023/07/29 02:56:23;;;;;;;6.72;2.60;;;;;;;15.97;100.00;97846.59;4173534;28;20433;-72
2023/07/29 02:58:23;;;;;;;3.83;2.30;;;;;;;15.90;100.00;97841.97;4173721;28;20064;-72
2023/07/29 03:00:24;;;;;;;3.72;2.58;;;;;;;15.89;100.00;97847.97;4173130;28;20045;-72
2023/07/29 03:02:24;;;;;;;2.67;2.38;;;;;;;15.87;100.00;97839.22;4173431;28;20056;-72
2023/07/29 03:04:24;;;;;;;4.05;2.38;;;;;;;15.87;100.00;97833.66;4172903;28;20443;-72
2023/07/29 03:06:25;;;;;;;2.45;2.25;;;;;;;15.87;100.00;97820.50;4173099;28;20053;-72
2023/07/29 03:08:25;;;;;;;4.32;2.15;;;;;;;15.94;100.00;97828.72;4173712;28;20048;-72
2023/07/29 03:10:25;;;;;;;3.15;2.08;;;;;;;15.96;100.00;97825.50;4173034;28;20397;-72
2023/07/29 03:12:26;;;;;;;2.47;2.17;;;;;;;15.96;100.00;97814.34;4173102;28;20039;-72
2023/07/29 03:14:27;;;;;;;3.67;2.63;;;;;;;15.98;100.00;97812.72;4172968;28;20048;-72
2023/07/29 03:16:27;;;;;;;2.60;2.40;;;;;;;15.98;100.00;97806.34;4173120;28;20040;-72
2023/07/29 03:18:28;;;;;;;3.28;2.72;;;;;;;15.95;100.00;97807.97;4172986;28;20044;-72
2023/07/29 03:20:28;;;;;;;3.13;2.13;;;;;;;15.91;100.00;97812.06;4173095;28;20037;-72
2023/07/29 03:22:28;;;;;;;3.13;2.67;;;;;;;15.88;100.00;97799.75;4172585;28;20057;-72
2023/07/29 03:24:29;;;;;;;4.63;2.40;;;;;;;15.91;100.00;97815.63;4171960;28;20044;-72
2023/07/29 03:26:29;;;;;;;2.70;2.33;;;;;;;15.85;100.00;97814.56;4173134;28;20037;-72
2023/07/29 03:28:33;;;;;;;5.88;2.65;;;;;;;15.82;100.00;97823.00;4173080;28;20121;-72
2023/07/29 03:30:33;;;;;;;3.20;2.60;;;;;;;15.80;100.00;97826.22;4172878;28;20061;-72
2023/07/29 03:32:33;;;;;;;3.10;2.30;;;;;;;15.80;100.00;97820.63;4172296;28;20052;-72
2023/07/29 03:34:34;;;;;;;3.13;2.30;;;;;;;15.79;100.00;97816.28;4172339;28;20083;-72
2023/07/29 03:36:34;;;;;;;3.95;2.80;;;;;;;15.73;100.00;97816.00;4173177;28;20045;-72
2023/07/29 03:38:35;;;;;;;3.75;2.78;;;;;;;15.72;100.00;97822.78;4172815;28;20076;-72
2023/07/29 03:40:35;;;;;;;21.48;2.90;;;;;;;15.70;100.00;97825.19;4172446;28;20041;-72
2023/07/29 03:42:36;;;;;;;3.10;2.42;;;;;;;15.67;100.00;97817.69;4172734;28;20160;-72
2023/07/29 03:44:38;;;;;;;4.38;2.78;;;;;;;15.69;100.00;97811.69;4172260;28;20148;-72
2023/07/29 03:46:38;;;;;;;;;;;;;;;15.71;100.00;97812.03;4174647;28;20377;-72
2023/07/29 03:48:39;;;;;;;3.90;2.73;;;;;;;15.67;100.00;97808.56;4172722;28;19924;-72
2023/07/29 03:50:39;;;;;;;8.55;3.30;;;;;;;15.64;100.00;97809.44;4172792;28;20268;-72
2023/07/29 03:52:39;;;;;;;3.88;3.20;;;;;;;15.58;100.00;97808.31;4171979;28;20128;-72
2023/07/29 03:54:40;;;;;;;4.72;3.15;;;;;;;15.59;100.00;97809.88;4172470;28;20036;-72
2023/07/29 03:56:41;;;;;;;3.42;2.88;;;;;;;15.61;100.00;97811.03;4173221;28;20036;-72
2023/07/29 03:58:41;;;;;;;2.70;2.50;;;;;;;15.64;100.00;97792.69;4173201;28;20057;-72
2023/07/29 04:00:41;;;;;;;7.95;3.22;;;;;;;15.66;100.00;97793.81;4172880;28;20052;-72
2023/07/29 04:02:42;;;;;;;4.10;2.80;;;;;;;15.65;100.00;97788.69;4172408;28;21044;-72
2023/07/29 04:04:44;;;;;;;2.90;2.58;;;;;;;15.66;100.00;97779.88;4171849;28;20132;-72
2023/07/29 04:06:44;;;;;;;4.97;2.65;;;;;;;15.70;100.00;97782.59;4172897;28;20032;-72
2023/07/29 04:08:44;;;;;;;2.63;2.33;;;;;;;15.71;100.00;97787.72;4172995;28;20037;-72
2023/07/29 04:10:45;;;;;;;7.18;2.55;;;;;;;15.71;100.00;97790.53;4173020;28;20373;-72
2023/07/29 04:12:45;;;;;;;5.57;3.00;;;;;;;15.71;100.00;97787.72;4171967;28;20151;-72
2023/07/29 04:14:45;;;;;;;3.63;2.38;;;;;;;15.73;100.00;97790.91;4171981;28;20045;-72
2023/07/29 04:16:46;;;;;;;5.00;2.63;;;;;;;15.77;100.00;97801.19;4173010;28;20033;-72
2023/07/29 04:18:46;;;;;;;4.82;2.55;;;;;;;15.80;100.00;97794.75;4172802;28;20045;-72
2023/07/29 04:20:46;;;;;;;3.85;2.47;;;;;;;15.78;100.00;97786.03;4172243;28;20489;-72
2023/07/29 04:22:47;;;;;;;3.60;2.65;;;;;;;15.79;100.00;97780.00;4172339;28;20072;-72
2023/07/29 04:24:47;;;;;;;5.97;3.00;;;;;;;15.84;100.00;97779.53;4171704;28;20084;-72
2023/07/29 04:26:47;;;;;;;7.72;2.92;;;;;;;15.83;100.00;97782.75;4172079;28;20045;-72
2023/07/29 04:28:48;;;;;;;5.13;3.20;;;;;;;15.82;100.00;97779.16;4172881;28;20044;-72
2023/07/29 04:30:48;;;;;;;3.28;2.65;;;;;;;15.83;100.00;97785.53;4172672;28;20374;-72
2023/07/29 04:32:48;;;;;;;8.00;3.13;;;;;;;15.84;100.00;97792.69;4171756;28;20053;-72
2023/07/29 04:34:49;;;;;;;5.78;2.90;;;;;;;15.84;100.00;97784.31;4171746;28;20044;-72
2023/07/29 04:36:49;;;;;;;5.38;3.05;;;;;;;15.88;100.00;97785.00;4172844;28;20367;-72
2023/07/29 04:38:49;;;;;;;4.10;2.67;;;;;;;15.98;100.00;97786.81;4171994;28;20048;-72
2023/07/29 04:40:50;;;;;;;3.13;2.45;;;;;;;16.04;100.00;97778.69;4172291;28;20438;-72
2023/07/29 04:42:51;;;;;;;3.78;3.05;;;;;;;16.17;100.00;97783.19;4172403;28;20049;-72
2023/07/29 04:44:51;;;;;;;3.35;2.80;;;;;;;16.27;100.00;97779.38;4173779;28;20485;-72
2023/07/29 04:46:51;;;;;;;5.25;2.55;;;;;;;16.34;100.00;97772.84;4175416;28;20051;-72
2023/07/29 04:48:52;;;;;;;3.05;2.53;;;;;;;16.40;100.00;97771.13;4175509;28;20314;-72
2023/07/29 04:50:52;;;;;;;3.58;2.50;;;;;;;16.47;100.00;97775.78;4175607;28;20135;-72
2023/07/29 04:52:53;;;;;;;3.55;2.20;;;;;;;16.50;100.00;97781.25;4174835;28;20564;-72
2023/07/29 04:54:53;;;;;;;5.38;2.70;;;;;;;16.53;100.00;97776.81;4175124;28;20128;-72
2023/07/29 04:56:53;;;;;;;5.72;3.03;;;;;;;16.56;100.00;97773.16;4175855;28;20132;-72
2023/07/29 04:58:54;;;;;;;4.20;2.58;;;;;;;16.55;100.00;97774.38;4175352;28;20500;-72
2023/07/29 05:00:54;;;;;;;3.85;2.30;;;;;;;16.55;100.00;97774.38;4175334;28;20537;-72
2023/07/29 05:02:54;;;;;;;3.53;2.35;;;;;;;16.57;100.00;97775.50;4174798;28;20045;-72
2023/07/29 05:04:55;;;;;;;6.13;2.65;;;;;;;16.61;100.00;97771.84;4175202;28;20484;-72
2023/07/29 05:06:55;;;;;;;4.57;2.25;;;;;;;16.64;100.00;97770.97;4175147;28;20037;-72
2023/07/29 05:08:57;;;;;;;4.75;2.28;;;;;;;16.67;100.00;97772.91;4175633;28;20052;-72
2023/07/29 05:10:58;;;;;;;2.45;2.20;;;;;;;16.71;100.00;97763.22;4175727;28;20112;-72
2023/07/29 05:12:58;;;;;;;5.05;2.28;;;;;;;16.78;100.00;97784.63;4174364;28;20068;-72
2023/07/29 05:14:58;;;;;;;3.55;2.25;;;;;;;16.88;100.00;97780.78;4172057;28;20041;-72
2023/07/29 05:16:59;;;;;;;3.08;1.98;;;;;;;17.03;100.00;97768.00;4174591;28;20047;-72
2023/07/29 05:18:59;;;;;;;1.90;1.70;;;;;;;17.31;100.00;97765.72;4174349;28;20268;-72
2023/07/29 05:20:59;;;;;;;1.90;1.70;;;;;;;17.54;100.00;97759.88;4174811;28;20515;-72
2023/07/29 05:23:00;;;;;;;2.38;1.80;;;;;;;17.78;100.00;97768.81;4170470;28;20048;-72
2023/07/29 05:25:01;;;;;;;2.28;1.85;;;;;;;17.94;100.00;97759.56;4173219;28;20252;-71
2023/07/29 05:27:01;;;;;;;2.92;1.70;;;;;;;18.19;100.00;97754.00;4173035;28;20049;-72
2023/07/29 05:29:01;;;;;;;2.53;1.90;;;;;;;18.40;100.00;97757.38;4171745;28;20142;-72
2023/07/29 05:31:02;;;;;;;1.95;1.75;;;;;;;18.61;100.00;97739.88;4171919;28;20053;-72
2023/07/29 05:33:04;;;;;;;2.08;1.63;;;;;;;18.74;100.00;97745.50;4173284;28;20393;-71
2023/07/29 05:35:04;;;;;;;2.85;1.65;;;;;;;18.81;100.00;97750.88;4172416;28;20541;-71
2023/07/29 05:37:05;;;;;;;1.95;1.80;;;;;;;18.83;100.00;97745.63;4172238;28;20060;-72
2023/07/29 05:39:07;;;;;;;1.85;1.70;;;;;;;18.81;100.00;97750.88;4169766;28;20045;-72
2023/07/29 05:41:07;;;;;;;1.85;1.60;;;;;;;18.78;100.00;97743.38;4168799;28;20056;-72
2023/07/29 05:43:08;;;;;;;2.10;1.65;;;;;;;18.79;100.00;97744.97;4173818;28;20037;-71
2023/07/29 05:45:08;;;;;;;2.75;1.77;;;;;;;18.85;100.00;97739.56;4115127;28;20068;-71
2023/07/29 05:47:09;;;;;;;1.67;1.55;;;;;;;18.88;100.00;97747.06;4174241;28;20603;-72
2023/07/29 05:49:09;;;;;;;3.13;1.50;;;;;;;18.89;100.00;97741.00;4169763;28;20124;-72
2023/07/29 05:51:09;;;;;;;2.42;1.50;;;;;;;18.92;100.00;97733.72;4169773;28;20049;-72
2023/07/29 05:53:10;;;;;;;1.70;1.60;;;;;;;18.96;100.00;97745.59;4173563;28;20099;-72
2023/07/29 05:55:10;;;;;;;2.22;1.85;;;;;;;18.97;100.00;97747.94;4169436;28;20040;-71
2023/07/29 05:57:11;;;;;;;5.32;1.48;;;;;;;18.96;100.00;97752.00;4174428;28;20124;-72
2023/07/29 05:59:12;;;;;;;1.50;1.40;;;;;;;18.93;100.00;97752.09;4173755;28;20032;-72
2023/07/29 06:01:12;;;;;;;2.30;1.50;;;;;;;18.91;100.00;97749.75;4164957;28;20072;-71
2023/07/29 06:03:12;;;;;;;6.80;1.83;;;;;;;18.90;100.00;97765.00;4169830;28;20366;-72
2023/07/29 06:05:13;;;;;;;1.75;1.65;;;;;;;18.85;100.00;97761.97;4173713;28;20058;-72
2023/07/29 06:07:13;;;;;;;2.20;1.73;;;;;;;18.77;100.00;97770.59;4172575;28;20048;-72
2023/07/29 06:09:13;;;;;;;3.55;1.60;;;;;;;18.76;100.00;97779.47;4167732;28;20056;-72
2023/07/29 06:11:14;;;;;;;1.95;1.73;;;;;;;18.77;100.00;97790.22;4168603;28;20094;-72
2023/07/29 06:13:14;;;;;;;1.60;1.42;;;;;;;18.75;100.00;97791.91;4165625;28;20040;-72
2023/07/29 06:15:14;;;;;;;1.75;1.65;;;;;;;18.75;100.00;97781.50;4166727;28;20049;-72
2023/07/29 06:17:15;;;;;;;1.98;1.77;;;;;;;18.75;100.00;97795.50;4166165;28;20072;-72
2023/07/29 06:19:15;;;;;;;2.53;1.83;;;;;;;18.75;100.00;97787.09;4172784;28;20056;-72
2023/07/29 06:21:16;;;;;;;2.10;1.70;;;;;;;18.76;100.00;97785.84;4173805;28;20044;-72
2023/07/29 06:23:17;;;;;;;3.83;2.03;;;;;;;18.77;100.00;97787.41;4172295;28;20049;-72
2023/07/29 06:25:17;;;;;;;2.10;1.60;;;;;;;18.74;100.00;97781.94;4170512;28;20730;-72
2023/07/29 06:27:17;;;;;;;2.17;1.60;;;;;;;18.78;100.00;97788.19;4173694;28;20579;-72
2023/07/29 06:29:18;;;;;;;2.83;1.35;;;;;;;18.76;100.00;97782.28;4173792;28;20036;-72
2023/07/29 06:31:18;;;;;;;2.72;1.40;;;;;;;18.79;100.00;97792.59;4173336;28;20073;-72
2023/07/29 06:33:18;;;;;;;3.58;1.73;;;;;;;18.80;100.00;97788.56;4172477;28;20401;-72
2023/07/29 06:35:19;;;;;;;1.58;1.48;;;;;;;18.82;100.00;97786.09;4172920;28;20033;-72
2023/07/29 06:37:19;;;;;;;1.50;1.40;;;;;;;18.86;100.00;97777.53;4173713;28;20110;-72
2023/07/29 06:39:19;;;;;;;2.42;1.50;;;;;;;18.93;100.00;97786.50;4173528;28;20599;-71
2023/07/29 06:41:20;;;;;;;3.17;1.50;;;;;;;18.98;100.00;97776.75;4173101;28;20044;-72
2023/07/29 06:43:21;;;;;;;5.00;1.40;;;;;;;19.12;100.00;97781.91;4172709;28;20322;-72
2023/07/29 06:45:21;;;;;;;2.55;1.40;;;;;;;19.15;100.00;97792.19;4173845;28;20060;-72
2023/07/29 06:47:21;;;;;;;1.58;1.30;;;;;;;19.12;100.00;97787.50;4173320;28;20197;-71
2023/07/29 06:49:22;;;;;;;1.73;1.20;;;;;;;19.14;100.00;97784.25;4173525;28;20033;-72
2023/07/29 06:51:22;;;;;;;1.52;1.40;;;;;;;19.16;100.00;97785.34;4169029;28;20041;-71
2023/07/29 06:53:22;;;;;;;3.13;1.60;;;;;;;19.23;100.00;97787.13;4170849;28;20855;-72
2023/07/29 06:55:23;;;;;;;6.57;1.55;;;;;;;19.36;100.00;97783.06;4168640;28;20055;-72
2023/07/29 06:57:23;;;;;;;6.13;1.92;;;;;;;19.53;100.00;97785.69;4171356;28;20040;-72
2023/07/29 06:59:24;;;;;;;2.85;1.50;;;;;;;19.63;100.00;97776.91;4173139;28;20041;-72
2023/07/29 07:01:24;;;;;;;2.47;1.50;;;;;;;19.77;100.00;97775.59;4172180;28;20048;-72
2023/07/29 07:03:25;;;;;;;2.30;1.35;;;;;;;19.84;100.00;97785.78;4172648;28;20489;-72
2023/07/29 07:05:25;;;;;;;3.90;1.50;;;;;;;19.98;100.00;97782.47;4173271;28;20041;-72
2023/07/29 07:07:25;;;;;;;1.58;1.48;;;;;;;20.17;100.00;97792.56;4172878;28;20033;-72
2023/07/29 07:09:26;;;;;;;2.22;1.40;;;;;;;20.27;100.00;97781.38;4172975;28;20308;-72
2023/07/29 07:11:26;;;;;;;2.00;1.42;;;;;;;20.35;100.00;97785.47;4173144;28;20337;-72
2023/07/29 07:13:26;;;;;;;1.98;1.42;;;;;;;20.31;100.00;97773.59;4172072;28;20049;-72
2023/07/29 07:15:27;;;;;;;1.38;1.27;;;;;;;20.41;100.00;97775.22;4173271;28;20037;-72
2023/07/29 07:17:27;;;;;;;1.30;1.20;;;;;;;20.42;100.00;97771.94;4173433;28;20466;-72
2023/07/29 07:19:27;;;;;;;0.93;0.90;;;;;;;20.47;100.00;97765.75;4173267;28;20441;-72
2023/07/29 07:21:28;;;;;;;2.20;1.20;;;;;;;20.48;100.00;97760.91;4172936;28;20124;-72
2023/07/29 07:23:28;;;;;;;3.10;1.00;;;;;;;20.53;100.00;97763.13;4172887;28;20033;-72
2023/07/29 07:25:28;;;;;;;1.48;1.13;;;;;;;20.64;100.00;97759.88;4172919;28;20865;-72
2023/07/29 07:27:29;;;;;;;2.90;1.08;;;;;;;20.73;100.00;97755.06;4173224;28;20045;-72
2023/07/29 07:29:30;;;;;;;4.95;1.30;;;;;;;20.83;100.00;97747.44;4173024;28;20055;-72
2023/07/29 07:31:33;;;;;;;1.83;1.05;;;;;;;20.91;100.00;97756.38;4172114;28;20320;-72
2023/07/29 07:33:34;;;;;;;1.20;1.10;;;;;;;20.93;100.00;97765.91;4172557;28;20115;-72
2023/07/29 07:35:34;;;;;;;0.80;0.80;;;;;;;20.89;100.00;97764.50;4172456;28;20044;-72
2023/07/29 07:37:34;;;;;;;1.25;1.05;;;;;;;20.85;100.00;97777.91;4173139;28;20075;-72
2023/07/29 07:39:35;;;;;;;3.42;1.30;;;;;;;20.74;100.00;97769.91;4171236;28;20173;-72
2023/07/29 07:41:35;;;;;;;1.17;1.05;;;;;;;20.70;100.00;97767.25;4170639;28;20044;-72
2023/07/29 07:43:35;;;;;;;1.27;1.10;;;;;;;20.68;100.00;97766.13;4171543;28;20396;-72
2023/07/29 07:45:35;;;;;;;2.10;1.23;;;;;;;20.64;100.00;97752.25;4171958;28;20033;-72
2023/07/29 07:47:36;;;;;;;4.15;1.25;;;;;;;20.70;100.00;97758.81;4172444;28;20298;-72
2023/07/29 07:49:36;;;;;;;2.05;1.35;;;;;;;20.74;100.00;97750.22;4172755;28;20473;-72
2023/07/29 07:51:36;;;;;;;3.05;1.30;;;;;;;20.80;100.00;97753.22;4170245;28;20052;-72
2023/07/29 07:53:37;;;;;;;1.88;1.40;;;;;;;20.85;100.00;97750.59;4170173;28;20056;-72
2023/07/29 07:55:37;;;;;;;3.88;1.42;;;;;;;20.88;100.00;97758.09;4168915;28;20182;-73
2023/07/29 07:57:37;;;;;;;2.22;1.48;;;;;;;20.92;100.00;97758.72;4172426;28;20096;-72
2023/07/29 07:59:38;;;;;;;8.30;1.90;;;;;;;20.98;100.00;97753.25;4172640;28;20108;-72
2023/07/29 08:01:39;;;;;;;2.85;1.50;;;;;;;20.88;100.00;97744.03;4171751;28;20116;-72
2023/07/29 08:03:39;;;;;;;1.77;1.40;;;;;;;20.91;100.00;97762.00;4168735;28;20041;-72
2023/07/29 08:05:40;;;;;;;6.35;1.98;;;;;;;20.91;100.00;97762.00;4170917;28;20037;-72
2023/07/29 08:07:40;;;;;;;3.65;1.70;;;;;;;20.89;100.00;97759.66;4172300;28;20037;-72
2023/07/29 08:09:40;;;;;;;2.50;1.73;;;;;;;20.80;100.00;97756.03;4172773;28;20200;-72
2023/07/29 08:11:41;;;;;;;1.52;1.42;;;;;;;20.74;100.00;97769.91;4172379;28;20049;-72
2023/07/29 08:13:41;;;;;;;1.40;1.30;;;;;;;20.67;100.00;97761.75;4172097;28;20045;-72
2023/07/29 08:15:45;;;;;;;1.70;1.60;;;;;;;20.65;100.00;97761.44;4172300;28;20049;-72
2023/07/29 08:17:45;;;;;;;2.20;1.73;;;;;;;20.69;100.00;97754.44;4173281;28;20440;-72
2023/07/29 08:19:46;;;;;;;1.85;1.42;;;;;;;20.64;100.00;97757.84;4175915;28;20061;-72
2023/07/29 08:21:46;;;;;;;1.70;1.60;;;;;;;20.72;100.00;97767.56;4174572;28;20412;-72
2023/07/29 08:23:46;;;;;;;2.63;1.60;;;;;;;20.72;100.00;97764.75;4175454;28;20048;-72
2023/07/29 08:25:55;;;;;;;1.98;1.50;;;;;;;20.75;100.00;97738.53;4173958;28;20056;-72
2023/07/29 08:27:56;;;;;;;2.45;1.95;;;;;;;20.80;100.00;97744.78;4175606;28;20302;-72
2023/07/29 08:29:56;;;;;;;2.88;1.85;;;;;;;20.83;100.00;97739.00;4174977;28;20091;-72
2023/07/29 08:31:56;;;;;;;1.75;1.50;;;;;;;20.86;100.00;97740.91;4175699;28;20057;-72
2023/07/29 08:33:57;;;;;;;2.17;1.67;;;;;;;20.88;100.00;97746.06;4175191;28;20486;-72
2023/07/29 08:35:57;;;;;;;1.50;1.40;;;;;;;20.83;100.00;97738.22;4171723;28;20057;-72
2023/07/29 08:37:58;;;;;;;2.03;1.83;;;;;;;20.83;100.00;97738.22;4174485;28;20115;-72
2023/07/29 08:39:59;;;;;;;2.08;1.80;;;;;;;20.86;100.00;97742.94;4175404;28;20587;-72
2023/07/29 08:42:08;;;;;;;1.63;1.48;;;;;;;20.83;100.00;97753.06;4175133;28;20052;-72
2023/07/29 08:44:26;;;;;;;1.70;1.60;;;;;;;20.72;100.00;97758.34;4174387;28;20119;-72
2023/07/29 08:46:28;;;;;;;2.13;1.92;;;;;;;20.62;100.00;97759.56;4176273;28;20068;-72
2023/07/29 08:48:41;;;;;;;2.13;1.80;;;;;;;20.57;100.00;97772.19;4175105;28;20436;-72
2023/07/29 08:50:44;;;;;;;1.52;1.42;;;;;;;20.52;100.00;97772.81;4173142;28;20049;-72
2023/07/29 08:52:45;;;;;;;3.33;1.85;;;;;;;20.54;100.00;97766.72;4173957;28;20553;-72
2023/07/29 08:54:46;;;;;;;3.33;1.83;;;;;;;20.48;100.00;97767.31;4174906;28;20048;-72
2023/07/29 08:56:46;;;;;;;4.63;1.70;;;;;;;20.46;100.00;97767.00;4174819;28;20044;-72
2023/07/29 08:58:48;;;;;;;6.15;2.30;;;;;;;20.46;100.00;97764.19;4174979;28;20088;-72
2023/07/29 09:00:49;;;;;;;3.55;1.90;;;;;;;20.46;100.00;97766.22;4171691;28;20068;-72
2023/07/29 09:02:49;;;;;;;3.90;1.80;;;;;;;20.45;100.00;97762.63;4171154;28;20691;-72
2023/07/29 09:04:50;;;;;;;3.00;2.00;;;;;;;20.43;100.00;97767.09;4174846;28;20076;-72
2023/07/29 09:06:51;;;;;;;3.08;1.80;;;;;;;20.43;100.00;97776.34;4173929;28;20045;-72
2023/07/29 09:08:53;;;;;;;3.58;1.75;;;;;;;20.42;100.00;97757.88;4175029;28;20043;-72
2023/07/29 09:10:55;;;;;;;2.28;1.83;;;;;;;20.43;100.00;97759.47;4170993;28;20040;-72
2023/07/29 09:12:56;;;;;;;2.77;2.13;;;;;;;20.45;100.00;97757.00;4173133;28;20048;-72
2023/07/29 09:14:56;;;;;;;2.22;2.03;;;;;;;20.52;100.00;97770.00;4174832;28;20033;-72
2023/07/29 09:16:56;;;;;;;4.05;1.90;;;;;;;20.60;100.00;97760.00;4174029;28;20485;-72
2023/07/29 09:19:01;;;;;;;3.30;2.25;;;;;;;20.64;100.00;97768.31;4175016;28;20058;-72
2023/07/29 09:21:01;;;;;;;4.57;1.90;;;;;;;20.68;100.00;97755.69;4174774;28;20120;-72
2023/07/29 09:23:01;;;;;;;5.55;2.33;;;;;;;20.62;100.00;97751.94;4173063;28;20183;-72
2023/07/29 09:25:02;;;;;;;3.03;2.10;;;;;;;20.62;100.00;97754.75;4174994;28;20075;-72